Time;durP1;ratioP1;P1;durP2;ratioP2;P2;SDS_P1;SDS_P2;PMS_P1;PMS_P2;Temp;Humidity;BMP_temperature;BMP_pressure;BME280_temperature;BME280_humidity;BME280_pressure;Samples;Min_cycle;Max_cycle;Signal;HPM_P1;HPM_P2
2024/02/29 00:01:57;;;;;;;15.90;5.65;;;14.60;92.30;;;;;;5054547;28;20054;-73
2024/02/29 00:04:28;;;;;;;18.35;5.28;;;14.60;92.30;;;;;;5054444;28;20276;-72
2024/02/29 00:06:54;;;;;;;15.85;5.90;;;14.50;92.50;;;;;;5054775;28;20083;-74
2024/02/29 00:09:20;;;;;;;14.10;5.72;;;14.50;92.70;;;;;;5054389;28;20439;-73
2024/02/29 00:11:45;;;;;;;15.60;6.10;;;14.40;92.70;;;;;;5054386;28;20025;-74
2024/02/29 00:14:12;;;;;;;15.30;5.97;;;14.40;92.90;;;;;;5054220;28;20041;-74
2024/02/29 00:16:39;;;;;;;15.23;5.03;;;14.40;92.80;;;;;;5054436;28;20108;-75
2024/02/29 00:19:05;;;;;;;12.52;5.10;;;14.30;92.80;;;;;;5054065;28;20033;-74
2024/02/29 00:21:33;;;;;;;14.80;5.43;;;14.30;92.90;;;;;;5054312;28;20048;-74
2024/02/29 00:23:59;;;;;;;11.23;4.68;;;14.30;93.10;;;;;;5052932;28;20125;-74
2024/02/29 00:26:24;;;;;;;14.38;5.20;;;14.20;93.10;;;;;;5054146;28;20132;-74
2024/02/29 00:28:50;;;;;;;15.57;4.85;;;14.20;93.10;;;;;;5054134;28;20043;-74
2024/02/29 00:31:16;;;;;;;15.90;4.90;;;14.20;93.20;;;;;;5054025;28;20061;-74
2024/02/29 00:33:41;;;;;;;12.88;4.35;;;14.10;93.20;;;;;;5054061;28;20025;-74
2024/02/29 00:36:08;;;;;;;13.00;4.63;;;14.10;93.40;;;;;;5053884;28;20037;-73
2024/02/29 00:38:33;;;;;;;14.05;5.00;;;14.10;93.40;;;;;;5052512;28;20021;-75
2024/02/29 00:40:59;;;;;;;10.80;4.18;;;14.20;93.50;;;;;;5053663;28;20056;-74
2024/02/29 00:43:25;;;;;;;14.77;4.68;;;14.20;93.40;;;;;;5053704;28;20021;-73
2024/02/29 00:45:52;;;;;;;12.27;4.13;;;14.20;93.40;;;;;;5053732;28;20083;-74
2024/02/29 00:48:17;;;;;;;14.00;3.90;;;14.20;93.30;;;;;;5053795;28;20029;-74
2024/02/29 00:50:43;;;;;;;11.95;4.15;;;14.20;93.30;;;;;;5052389;28;20373;-74
2024/02/29 00:53:09;;;;;;;12.05;3.90;;;14.20;93.30;;;;;;5053502;28;20075;-73
2024/02/29 00:55:35;;;;;;;11.27;4.13;;;14.10;93.40;;;;;;5053432;28;20025;-73
2024/02/29 00:58:01;;;;;;;9.93;3.72;;;14.10;93.40;;;;;;5052187;28;20460;-74
2024/02/29 01:00:26;;;;;;;12.85;3.53;;;14.10;93.30;;;;;;5053342;28;20432;-73
2024/02/29 01:02:52;;;;;;;13.68;3.75;;;14.10;93.40;;;;;;5053289;28;20072;-74
2024/02/29 01:05:18;;;;;;;13.65;3.90;;;14.10;93.40;;;;;;5053208;28;20041;-74
2024/02/29 01:07:43;;;;;;;14.63;4.07;;;14.00;93.30;;;;;;5052915;28;20025;-73
2024/02/29 01:10:12;;;;;;;12.95;3.53;;;14.00;93.40;;;;;;5052962;28;20488;-73
2024/02/29 01:12:39;;;;;;;12.38;3.47;;;14.10;93.40;;;;;;5053392;28;20094;-74
2024/02/29 01:15:09;;;;;;;12.77;3.92;;;14.10;93.60;;;;;;5053264;28;20047;-73
2024/02/29 01:17:35;;;;;;;11.75;3.38;;;14.00;93.20;;;;;;5053144;28;20130;-73
2024/02/29 01:20:00;;;;;;;10.85;3.53;;;14.10;93.40;;;;;;5053113;28;20517;-73
2024/02/29 01:22:26;;;;;;;9.10;3.10;;;14.00;93.20;;;;;;5052867;28;20060;-73
2024/02/29 01:24:52;;;;;;;14.52;3.08;;;13.90;93.20;;;;;;5052894;28;20048;-72
2024/02/29 01:27:17;;;;;;;12.50;3.17;;;13.90;93.20;;;;;;5053070;28;20044;-73
2024/02/29 01:29:43;;;;;;;12.55;2.78;;;13.90;93.20;;;;;;5052921;28;20491;-73
2024/02/29 01:32:09;;;;;;;14.15;3.35;;;13.90;93.20;;;;;;5052438;28;20049;-73
2024/02/29 01:34:35;;;;;;;7.93;2.35;;;13.90;93.40;;;;;;5052734;28;20503;-74
2024/02/29 01:37:01;;;;;;;14.23;2.72;;;13.90;93.10;;;;;;5052685;28;20422;-74
2024/02/29 01:39:27;;;;;;;13.65;2.88;;;13.90;93.10;;;;;;5052774;28;20033;-74
2024/02/29 01:41:53;;;;;;;14.32;2.65;;;13.90;93.00;;;;;;5052630;28;20114;-73
2024/02/29 01:44:18;;;;;;;13.07;3.25;;;13.90;93.00;;;;;;5052780;28;20073;-73
2024/02/29 01:46:44;;;;;;;13.30;3.50;;;13.90;93.00;;;;;;5051507;28;20087;-73
2024/02/29 01:49:13;;;;;;;12.15;2.90;;;14.00;93.00;;;;;;5051903;28;20476;-72
2024/02/29 01:51:40;;;;;;;11.23;2.83;;;14.00;93.00;;;;;;5052357;28;20037;-73
2024/02/29 01:54:06;;;;;;;13.18;2.55;;;13.90;92.80;;;;;;5052438;28;20029;-73
2024/02/29 01:56:32;;;;;;;10.73;2.25;;;13.90;92.90;;;;;;5052525;28;20120;-73
2024/02/29 01:58:59;;;;;;;10.15;3.08;;;13.90;92.90;;;;;;5052158;28;20029;-72
2024/02/29 02:01:25;;;;;;;12.45;2.60;;;13.90;92.90;;;;;;5052477;28;20123;-74
2024/02/29 02:03:51;;;;;;;13.60;3.00;;;13.90;92.90;;;;;;5051214;28;20148;-74
2024/02/29 02:06:17;;;;;;;10.63;3.17;;;13.80;92.70;;;;;;5052313;28;20033;-73
2024/02/29 02:08:42;;;;;;;12.30;2.53;;;13.80;92.60;;;;;;5052232;28;20060;-73
2024/02/29 02:11:08;;;;;;;14.35;3.10;;;13.70;92.70;;;;;;5052339;28;20029;-74
2024/02/29 02:13:34;;;;;;;8.70;2.20;;;13.70;92.70;;;;;;5052562;28;20174;-74
2024/02/29 02:16:00;;;;;;;12.07;2.35;;;13.70;92.80;;;;;;5052269;28;20437;-73
2024/02/29 02:18:26;;;;;;;10.13;2.30;;;13.70;92.80;;;;;;5052214;28;20033;-73
2024/02/29 02:20:54;;;;;;;10.90;2.40;;;13.70;92.90;;;;;;5052634;28;20033;-73
2024/02/29 02:23:21;;;;;;;13.32;2.58;;;13.70;92.90;;;;;;5052147;28;20493;-73
2024/02/29 02:25:47;;;;;;;11.50;2.85;;;13.70;92.80;;;;;;5052020;28;20072;-74
2024/02/29 02:28:12;;;;;;;11.48;2.33;;;13.70;92.90;;;;;;5050929;28;20421;-73
2024/02/29 02:30:39;;;;;;;12.30;2.67;;;13.70;92.70;;;;;;5052042;28;20045;-73
2024/02/29 02:33:05;;;;;;;11.25;2.58;;;13.60;92.80;;;;;;5052147;28;20057;-73
2024/02/29 02:35:33;;;;;;;9.77;2.17;;;13.50;92.70;;;;;;5052279;28;20075;-73
2024/02/29 02:38:00;;;;;;;12.23;2.72;;;13.50;92.90;;;;;;5052073;28;20030;-73
2024/02/29 02:40:25;;;;;;;11.10;2.28;;;13.50;92.90;;;;;;5051946;28;20033;-73
2024/02/29 02:42:51;;;;;;;9.13;2.13;;;13.50;93.00;;;;;;5051899;28;20024;-74
2024/02/29 02:45:17;;;;;;;10.93;2.72;;;13.50;93.00;;;;;;5051797;28;20041;-73
2024/02/29 02:47:42;;;;;;;10.50;2.28;;;13.40;92.90;;;;;;5051728;28;20053;-74
2024/02/29 02:50:09;;;;;;;11.18;2.20;;;13.50;93.10;;;;;;5051745;28;20034;-73
2024/02/29 02:52:35;;;;;;;10.27;2.58;;;13.50;93.00;;;;;;5052049;28;20416;-72
2024/02/29 02:55:01;;;;;;;8.88;2.15;;;13.40;93.00;;;;;;5052464;28;20041;-73
2024/02/29 02:57:26;;;;;;;12.07;2.30;;;13.50;93.00;;;;;;5052393;28;20036;-74
2024/02/29 02:59:52;;;;;;;8.32;1.70;;;13.40;93.10;;;;;;5052101;28;20071;-73
2024/02/29 03:02:18;;;;;;;14.10;2.78;;;13.40;92.90;;;;;;5055426;28;20086;-73
2024/02/29 03:04:44;;;;;;;13.43;2.63;;;13.40;92.90;;;;;;5055363;28;20232;-73
2024/02/29 03:07:09;;;;;;;9.45;1.90;;;13.40;92.80;;;;;;5054183;28;20036;-73
2024/02/29 03:09:35;;;;;;;8.02;2.13;;;13.40;92.70;;;;;;5055621;28;20044;-73
2024/02/29 03:12:01;;;;;;;9.73;2.00;;;13.40;92.60;;;;;;5055477;28;20029;-73
2024/02/29 03:14:27;;;;;;;9.38;2.15;;;13.40;92.80;;;;;;5055170;28;20452;-73
2024/02/29 03:16:53;;;;;;;10.55;2.63;;;13.40;92.70;;;;;;5055145;28;20021;-73
2024/02/29 03:19:19;;;;;;;8.32;2.13;;;13.40;92.60;;;;;;5055205;28;20037;-73
2024/02/29 03:21:45;;;;;;;9.52;2.00;;;13.40;92.60;;;;;;5055181;28;20027;-72
2024/02/29 03:24:10;;;;;;;13.48;2.13;;;13.40;92.50;;;;;;5055018;28;20087;-73
2024/02/29 03:26:36;;;;;;;9.70;2.00;;;13.40;92.50;;;;;;5055294;28;20079;-74
2024/02/29 03:29:02;;;;;;;9.00;1.92;;;13.40;92.70;;;;;;5053785;28;20037;-74
2024/02/29 03:31:27;;;;;;;6.95;2.17;;;13.40;92.80;;;;;;5054472;28;20037;-73
2024/02/29 03:33:53;;;;;;;11.20;2.10;;;13.40;92.80;;;;;;5054868;28;20480;-73
2024/02/29 03:36:19;;;;;;;7.75;2.17;;;13.40;92.70;;;;;;5054943;28;20057;-74
2024/02/29 03:38:44;;;;;;;8.77;2.28;;;13.50;92.80;;;;;;5054968;28;20033;-73
2024/02/29 03:41:10;;;;;;;8.48;1.95;;;13.50;92.80;;;;;;5054768;28;20033;-74
2024/02/29 03:43:36;;;;;;;5.38;1.80;;;13.50;92.80;;;;;;5054654;28;20068;-73
2024/02/29 03:46:02;;;;;;;12.27;2.53;;;13.50;92.90;;;;;;5054609;28;20060;-73
2024/02/29 03:48:28;;;;;;;6.07;1.42;;;13.60;93.00;;;;;;5054826;28;20025;-73
2024/02/29 03:50:54;;;;;;;7.93;2.10;;;13.60;92.80;;;;;;5054604;28;20044;-74
2024/02/29 03:53:20;;;;;;;7.00;1.63;;;13.60;92.80;;;;;;5054449;28;20033;-73
2024/02/29 03:55:50;;;;;;;8.55;1.70;;;13.60;92.80;;;;;;5054518;28;20396;-73
2024/02/29 03:58:16;;;;;;;6.40;1.90;;;13.60;92.90;;;;;;5054388;28;20094;-72
2024/02/29 04:00:42;;;;;;;7.10;1.90;;;13.60;92.80;;;;;;5054299;28;20492;-75
2024/02/29 04:03:08;;;;;;;5.50;1.55;;;13.60;92.70;;;;;;5054462;28;20048;-74
2024/02/29 04:05:34;;;;;;;8.07;2.22;;;13.60;92.70;;;;;;5054276;28;20496;-74
2024/02/29 04:08:10;;;;;;;4.40;1.58;;;13.60;92.70;;;;;;5054278;28;20033;-73
2024/02/29 04:10:46;;;;;;;7.57;1.90;;;13.60;92.70;;;;;;5054264;28;20048;-73
2024/02/29 04:13:11;;;;;;;7.18;2.03;;;13.60;92.80;;;;;;5053188;28;20029;-76
2024/02/29 04:15:37;;;;;;;8.23;1.55;;;13.60;92.60;;;;;;5054036;28;20450;-73
2024/02/29 04:18:04;;;;;;;5.20;1.40;;;13.60;92.60;;;;;;5036347;28;20040;-74
2024/02/29 04:20:30;;;;;;;6.95;1.70;;;13.60;92.50;;;;;;5054067;28;20025;-73
2024/02/29 04:22:56;;;;;;;7.65;1.42;;;13.60;92.50;;;;;;5052651;28;20037;-74
2024/02/29 04:25:25;;;;;;;7.93;1.90;;;13.60;92.50;;;;;;5053854;28;20045;-74
2024/02/29 04:27:51;;;;;;;8.18;1.85;;;13.60;92.50;;;;;;5053848;28;20134;-73
2024/02/29 04:30:18;;;;;;;8.95;2.08;;;13.60;92.50;;;;;;5053460;28;20115;-74
2024/02/29 04:32:44;;;;;;;9.90;1.40;;;13.60;92.50;;;;;;5053658;28;20075;-74
2024/02/29 04:35:09;;;;;;;5.90;1.55;;;13.60;92.40;;;;;;5053669;28;20036;-73
2024/02/29 04:37:36;;;;;;;7.80;1.60;;;13.60;92.40;;;;;;5053686;28;20025;-72
2024/02/29 04:40:03;;;;;;;7.03;1.70;;;13.60;92.10;;;;;;5053497;28;20040;-74
2024/02/29 04:42:29;;;;;;;5.30;1.85;;;13.60;92.10;;;;;;5053519;28;20493;-73
2024/02/29 04:44:55;;;;;;;12.57;2.22;;;13.60;92.10;;;;;;5053616;28;20041;-73
2024/02/29 04:47:22;;;;;;;7.13;1.70;;;13.60;92.10;;;;;;5053594;28;20079;-74
2024/02/29 04:49:48;;;;;;;7.65;1.80;;;13.60;91.90;;;;;;5053113;28;20033;-73
2024/02/29 04:52:13;;;;;;;10.93;2.00;;;13.60;91.90;;;;;;5053334;28;20033;-73
2024/02/29 04:54:39;;;;;;;14.77;3.15;;;13.50;91.90;;;;;;5053219;28;20112;-73
2024/02/29 04:57:05;;;;;;;6.10;2.15;;;13.60;91.80;;;;;;5053284;28;20449;-73
2024/02/29 04:59:31;;;;;;;6.90;1.90;;;13.60;91.90;;;;;;5053006;28;20025;-73
2024/02/29 05:01:57;;;;;;;13.60;2.40;;;13.60;91.80;;;;;;5053377;28;20028;-74
2024/02/29 05:04:23;;;;;;;10.48;1.90;;;13.60;91.80;;;;;;5052169;28;20052;-73
2024/02/29 05:06:49;;;;;;;9.73;2.17;;;13.70;91.70;;;;;;5053497;28;20029;-74
2024/02/29 05:09:15;;;;;;;10.50;2.33;;;13.70;91.70;;;;;;5052869;28;20095;-72
2024/02/29 05:11:41;;;;;;;9.50;2.28;;;13.70;91.70;;;;;;5053221;28;20374;-75
2024/02/29 05:14:07;;;;;;;6.88;2.47;;;13.70;91.60;;;;;;5053299;28;20075;-74
2024/02/29 05:16:33;;;;;;;10.50;2.58;;;13.70;91.60;;;;;;5053246;28;20116;-74
2024/02/29 05:18:59;;;;;;;9.60;2.33;;;13.80;91.60;;;;;;5053336;28;20179;-73
2024/02/29 05:21:25;;;;;;;11.15;2.13;;;13.70;91.50;;;;;;5053055;28;20046;-73
2024/02/29 05:23:51;;;;;;;9.05;2.00;;;13.70;91.50;;;;;;5053036;28;20128;-73
2024/02/29 05:26:18;;;;;;;8.85;2.28;;;13.80;91.50;;;;;;5053305;28;20029;-73
2024/02/29 05:28:44;;;;;;;7.43;2.08;;;13.80;91.50;;;;;;5053351;28;20044;-74
2024/02/29 05:31:10;;;;;;;10.00;2.92;;;13.70;91.50;;;;;;5052699;28;20041;-73
2024/02/29 05:33:37;;;;;;;10.35;2.75;;;13.70;91.50;;;;;;5052943;28;20060;-74
2024/02/29 05:36:03;;;;;;;9.48;2.25;;;13.70;91.60;;;;;;5052779;28;20112;-74
2024/02/29 05:38:29;;;;;;;7.47;2.20;;;13.70;91.50;;;;;;5052770;28;20033;-74
2024/02/29 05:40:57;;;;;;;10.05;2.40;;;13.70;91.50;;;;;;5052904;28;20033;-73
2024/02/29 05:43:23;;;;;;;6.95;2.50;;;13.70;91.40;;;;;;5052512;28;20037;-73
2024/02/29 05:45:49;;;;;;;5.65;1.50;;;13.70;91.40;;;;;;5051363;28;20045;-74
2024/02/29 05:48:15;;;;;;;7.15;1.85;;;13.70;91.30;;;;;;5052835;28;20037;-74
2024/02/29 05:50:40;;;;;;;5.00;1.45;;;13.60;91.30;;;;;;5052659;28;20029;-73
2024/02/29 05:53:06;;;;;;;9.63;1.95;;;13.60;91.30;;;;;;5052396;28;20037;-72
2024/02/29 05:55:32;;;;;;;5.13;1.40;;;13.60;91.30;;;;;;5052340;28;20112;-74
2024/02/29 05:57:58;;;;;;;5.60;1.40;;;13.60;91.40;;;;;;5052404;28;20037;-73
2024/02/29 06:00:24;;;;;;;5.78;1.67;;;13.60;91.40;;;;;;5052137;28;20098;-73
2024/02/29 06:02:49;;;;;;;7.97;1.88;;;13.50;91.30;;;;;;5034401;28;20524;-74
2024/02/29 06:05:15;;;;;;;10.50;1.80;;;13.50;91.30;;;;;;5052309;28;20048;-74
2024/02/29 06:07:41;;;;;;;5.97;2.03;;;13.50;91.40;;;;;;5052289;28;20062;-74
2024/02/29 06:10:10;;;;;;;10.90;2.15;;;13.50;91.30;;;;;;5052589;28;20163;-74
2024/02/29 06:12:36;;;;;;;10.35;2.47;;;13.50;91.30;;;;;;5052193;28;20033;-73
2024/02/29 06:15:03;;;;;;;14.88;2.10;;;13.50;91.30;;;;;;5052247;28;20433;-73
2024/02/29 06:17:29;;;;;;;4.35;1.63;;;13.50;91.40;;;;;;5052009;28;20029;-73
2024/02/29 06:19:55;;;;;;;4.65;1.30;;;13.50;91.30;;;;;;5051824;28;20499;-75
2024/02/29 06:22:22;;;;;;;6.72;2.00;;;13.50;91.30;;;;;;5051900;28;20029;-74
2024/02/29 06:24:51;;;;;;;8.90;3.33;;;13.50;91.30;;;;;;5051863;28;20041;-74
2024/02/29 06:27:20;;;;;;;6.90;1.73;;;13.50;91.40;;;;;;5051872;28;20025;-74
2024/02/29 06:29:46;;;;;;;9.95;2.03;;;13.50;91.30;;;;;;5051964;28;20033;-74
2024/02/29 06:32:13;;;;;;;8.35;2.08;;;13.50;91.50;;;;;;5051876;28;20449;-73
2024/02/29 06:34:39;;;;;;;5.38;1.60;;;13.50;91.40;;;;;;5052633;28;20489;-73
2024/02/29 06:37:06;;;;;;;6.50;1.60;;;13.50;91.40;;;;;;5055937;28;20063;-75
2024/02/29 06:39:32;;;;;;;9.77;2.22;;;13.50;91.50;;;;;;5055796;28;20385;-75
2024/02/29 06:41:58;;;;;;;7.00;1.90;;;13.50;91.50;;;;;;5056365;28;20025;-75
2024/02/29 06:44:24;;;;;;;5.97;1.88;;;13.50;91.60;;;;;;5055928;28;20037;-75
2024/02/29 06:46:50;;;;;;;6.72;1.50;;;13.50;91.40;;;;;;5055971;28;20087;-75
2024/02/29 06:49:15;;;;;;;4.75;1.60;;;13.50;91.50;;;;;;5055523;28;20508;-74
2024/02/29 06:51:41;;;;;;;4.47;1.15;;;13.50;91.40;;;;;;5055524;28;20118;-75
2024/02/29 06:54:07;;;;;;;5.72;1.92;;;13.50;91.40;;;;;;5055395;28;20048;-75
2024/02/29 06:56:33;;;;;;;5.32;1.75;;;13.50;91.20;;;;;;5055323;28;20139;-74
2024/02/29 06:58:58;;;;;;;5.97;1.40;;;13.50;91.20;;;;;;5054129;28;20079;-73
2024/02/29 07:01:24;;;;;;;5.30;1.35;;;13.50;91.10;;;;;;5055355;28;20409;-75
2024/02/29 07:03:50;;;;;;;5.07;1.30;;;13.50;91.20;;;;;;5055435;28;20052;-74
2024/02/29 07:06:16;;;;;;;7.35;1.67;;;13.50;91.10;;;;;;5055205;28;20041;-76
2024/02/29 07:08:42;;;;;;;4.93;1.80;;;13.50;91.10;;;;;;5055263;28;20562;-75
2024/02/29 07:11:11;;;;;;;6.95;1.55;;;13.60;91.10;;;;;;5054958;28;20037;-73
2024/02/29 07:13:37;;;;;;;5.82;1.60;;;13.60;90.90;;;;;;5055075;28;20484;-75
2024/02/29 07:16:03;;;;;;;8.52;1.90;;;13.60;91.00;;;;;;5053825;28;20503;-76
2024/02/29 07:18:29;;;;;;;8.00;1.67;;;13.60;90.90;;;;;;5055053;28;20124;-74
2024/02/29 07:20:55;;;;;;;4.78;1.77;;;13.60;90.90;;;;;;5055116;28;20443;-75
2024/02/29 07:23:21;;;;;;;5.10;2.05;;;13.60;90.90;;;;;;5054556;28;20060;-73
2024/02/29 07:25:46;;;;;;;8.32;2.65;;;13.60;90.90;;;;;;5054927;28;20045;-76
2024/02/29 07:28:12;;;;;;;11.20;2.53;;;13.60;90.80;;;;;;5054825;28;20039;-74
2024/02/29 07:30:38;;;;;;;7.63;1.90;;;13.70;90.70;;;;;;5054534;28;20409;-75
2024/02/29 07:33:04;;;;;;;5.95;1.88;;;13.70;90.70;;;;;;5054711;28;20053;-75
2024/02/29 07:35:31;;;;;;;8.95;2.13;;;13.60;90.60;;;;;;5054525;28;20068;-75
2024/02/29 07:37:57;;;;;;;10.32;2.33;;;13.60;90.60;;;;;;5054425;28;20032;-73
2024/02/29 07:40:23;;;;;;;10.25;2.22;;;13.60;90.70;;;;;;5054596;28;20516;-75
2024/02/29 07:42:49;;;;;;;10.00;2.00;;;13.60;90.60;;;;;;5053085;28;20030;-73
2024/02/29 07:45:15;;;;;;;9.38;1.65;;;13.60;90.60;;;;;;5054183;28;20048;-74
2024/02/29 07:47:41;;;;;;;10.45;2.03;;;13.70;90.60;;;;;;5052913;28;20037;-73
2024/02/29 07:50:09;;;;;;;9.68;1.80;;;13.60;90.50;;;;;;5054210;28;20040;-74
2024/02/29 07:52:37;;;;;;;11.07;2.22;;;13.60;90.50;;;;;;5055692;28;20371;-74
2024/02/29 07:55:07;;;;;;;8.40;2.35;;;13.50;90.50;;;;;;5056992;28;20033;-75
2024/02/29 07:57:32;;;;;;;5.60;1.65;;;13.50;90.50;;;;;;5054477;28;20405;-73
2024/02/29 07:59:58;;;;;;;8.80;2.25;;;13.60;90.60;;;;;;5054207;28;20044;-73
2024/02/29 08:02:24;;;;;;;8.38;2.30;;;13.60;90.70;;;;;;5054276;28;20033;-75
2024/02/29 08:04:50;;;;;;;9.27;3.35;;;13.70;90.70;;;;;;5054295;28;20457;-75
2024/02/29 08:07:15;;;;;;;9.82;2.65;;;13.70;90.70;;;;;;5054262;28;20025;-75
2024/02/29 08:09:41;;;;;;;7.32;2.08;;;13.70;90.50;;;;;;5054142;28;20040;-74
2024/02/29 08:12:07;;;;;;;8.10;1.92;;;13.70;90.60;;;;;;5054080;28;20400;-73
2024/02/29 08:14:32;;;;;;;9.00;1.73;;;13.70;90.70;;;;;;5054433;28;20044;-74
2024/02/29 08:16:58;;;;;;;7.00;2.15;;;13.80;90.50;;;;;;5054087;28;20155;-75
2024/02/29 08:19:24;;;;;;;8.70;2.45;;;13.80;90.50;;;;;;5054100;28;20439;-74
2024/02/29 08:21:50;;;;;;;15.65;4.50;;;13.80;90.50;;;;;;5053839;28;20539;-75
2024/02/29 08:24:16;;;;;;;7.82;2.88;;;13.90;90.40;;;;;;5053768;28;20060;-74
2024/02/29 08:26:42;;;;;;;8.60;1.88;;;13.90;90.30;;;;;;5053985;28;20040;-75
2024/02/29 08:29:13;;;;;;;9.38;2.00;;;13.90;90.20;;;;;;5040003;28;20041;-78
2024/02/29 08:31:40;;;;;;;5.70;1.65;;;13.90;90.20;;;;;;5033832;28;20520;-77
2024/02/29 08:34:05;;;;;;;8.20;2.00;;;13.80;90.10;;;;;;5034552;28;20117;-81
2024/02/29 08:36:31;;;;;;;6.32;1.60;;;13.80;90.10;;;;;;5034159;28;20187;-76
2024/02/29 08:38:58;;;;;;;6.95;1.50;;;13.80;90.10;;;;;;5017127;28;20036;-75
2024/02/29 08:41:24;;;;;;;8.07;1.98;;;13.80;90.00;;;;;;5033476;28;20087;-76
2024/02/29 08:43:50;;;;;;;8.95;1.83;;;13.70;90.00;;;;;;5038827;28;20064;-73
2024/02/29 08:46:15;;;;;;;10.65;1.98;;;13.70;90.10;;;;;;5039116;28;20033;-72
2024/02/29 08:48:42;;;;;;;8.00;2.30;;;13.70;90.10;;;;;;5033819;28;20043;-77
2024/02/29 08:51:08;;;;;;;7.75;1.92;;;13.70;90.00;;;;;;5033498;28;20396;-83
2024/02/29 08:53:34;;;;;;;9.57;3.03;;;13.80;90.20;;;;;;5036854;28;20033;-71
2024/02/29 08:56:00;;;;;;;9.93;2.10;;;13.80;90.10;;;;;;5053518;28;20044;-70
2024/02/29 08:58:26;;;;;;;12.05;4.88;;;13.90;90.10;;;;;;5052661;28;20029;-72
2024/02/29 09:00:52;;;;;;;9.80;3.30;;;13.90;90.10;;;;;;5053126;28;20522;-72
2024/02/29 09:03:17;;;;;;;7.50;3.15;;;14.00;90.00;;;;;;5049510;28;20124;-78
2024/02/29 09:05:44;;;;;;;10.23;3.10;;;14.10;90.00;;;;;;5049497;28;20496;-70
2024/02/29 09:08:10;;;;;;;10.30;2.83;;;14.10;89.60;;;;;;5052710;28;20116;-71
2024/02/29 09:10:36;;;;;;;9.75;2.70;;;14.10;89.40;;;;;;5051590;28;20580;-72
2024/02/29 09:13:05;;;;;;;6.40;2.22;;;14.10;89.20;;;;;;5052966;28;20033;-71
2024/02/29 09:15:32;;;;;;;6.10;2.00;;;14.10;89.40;;;;;;5051907;28;20123;-71
2024/02/29 09:17:57;;;;;;;12.88;2.97;;;14.20;89.40;;;;;;5041761;28;20025;-75
2024/02/29 09:20:23;;;;;;;5.88;2.13;;;14.20;89.00;;;;;;5047946;28;20048;-72
2024/02/29 09:22:49;;;;;;;7.97;2.33;;;14.20;89.10;;;;;;5052343;28;20033;-73
2024/02/29 09:25:17;;;;;;;7.35;2.25;;;14.20;88.70;;;;;;5034422;28;20045;-73
2024/02/29 09:27:46;;;;;;;7.97;2.50;;;14.20;88.70;;;;;;5053290;28;20033;-81
2024/02/29 09:30:12;;;;;;;12.57;2.20;;;14.30;88.10;;;;;;5032331;28;20439;-76
2024/02/29 09:32:38;;;;;;;11.23;2.38;;;14.40;88.10;;;;;;5042457;28;20048;-74
2024/02/29 09:35:04;;;;;;;10.48;2.38;;;14.50;88.00;;;;;;5041923;28;20045;-74
2024/02/29 09:37:30;;;;;;;6.00;1.85;;;14.60;87.50;;;;;;5050125;28;20116;-76
2024/02/29 09:39:56;;;;;;;8.10;2.58;;;14.60;86.90;;;;;;5051653;28;20072;-77
2024/02/29 09:42:26;;;;;;;11.82;2.65;;;14.60;86.80;;;;;;5034376;28;20059;-77
2024/02/29 09:44:52;;;;;;;8.30;2.42;;;14.70;86.60;;;;;;5052221;28;20073;-78
2024/02/29 09:47:19;;;;;;;10.27;2.97;;;14.80;86.50;;;;;;5052874;28;20056;-77
2024/02/29 09:49:45;;;;;;;7.80;3.00;;;14.80;86.30;;;;;;5053084;28;20051;-77
2024/02/29 09:52:12;;;;;;;8.00;3.00;;;14.80;85.90;;;;;;5055897;28;20033;-77
2024/02/29 09:54:40;;;;;;;9.95;2.30;;;14.90;86.10;;;;;;5054983;28;20067;-76
2024/02/29 09:57:10;;;;;;;10.15;3.55;;;14.90;85.60;;;;;;5052529;28;20040;-77
2024/02/29 09:59:38;;;;;;;20.55;3.03;;;14.90;85.60;;;;;;5052546;28;20037;-76
2024/02/29 10:02:05;;;;;;;39.42;4.20;;;14.90;85.60;;;;;;5052308;28;20029;-76
2024/02/29 10:04:31;;;;;;;12.88;2.20;;;14.90;85.50;;;;;;5052737;28;20068;-76
2024/02/29 10:06:57;;;;;;;13.50;2.30;;;14.90;85.10;;;;;;5052602;28;20490;-78
2024/02/29 10:09:24;;;;;;;10.32;2.55;;;14.90;84.90;;;;;;5051709;28;20064;-78
2024/02/29 10:11:53;;;;;;;13.20;2.65;;;14.90;85.00;;;;;;5052637;28;20029;-78
2024/02/29 10:14:20;;;;;;;37.92;3.95;;;15.00;85.10;;;;;;5052360;28;20030;-77
2024/02/29 10:16:53;;;;;;;11.48;2.67;;;15.00;85.00;;;;;;5052022;28;20127;-75
2024/02/29 10:19:20;;;;;;;13.13;2.78;;;15.10;84.70;;;;;;5052350;28;20087;-77
2024/02/29 10:21:45;;;;;;;10.52;3.35;;;15.10;84.70;;;;;;5052187;28;20497;-76
2024/02/29 10:24:11;;;;;;;20.58;4.57;;;15.20;84.60;;;;;;5053871;28;20147;-76
2024/02/29 10:26:37;;;;;;;13.75;4.43;;;15.30;84.50;;;;;;5054179;28;20045;-77
2024/02/29 10:29:04;;;;;;;12.43;3.50;;;15.30;83.90;;;;;;5052463;28;20501;-78
2024/02/29 10:31:30;;;;;;;12.30;3.35;;;15.40;83.20;;;;;;5052162;28;20037;-77
2024/02/29 10:33:56;;;;;;;10.52;2.53;;;15.50;83.30;;;;;;5051870;28;20048;-77
2024/02/29 10:36:22;;;;;;;12.10;3.40;;;15.60;82.80;;;;;;5051975;28;20131;-76
2024/02/29 10:38:49;;;;;;;8.98;2.42;;;15.90;82.30;;;;;;5052133;28;20041;-75
2024/02/29 10:41:16;;;;;;;8.55;2.58;;;16.10;81.50;;;;;;5051919;28;20033;-77
2024/02/29 10:43:47;;;;;;;9.82;2.42;;;16.20;80.80;;;;;;5034334;28;20154;-77
2024/02/29 10:46:18;;;;;;;15.23;3.20;;;16.30;80.70;;;;;;5051992;28;20154;-77
2024/02/29 10:49:16;;;;;;;12.25;2.70;;;16.50;80.50;;;;;;5052030;28;20111;-77
2024/02/29 10:51:53;;;;;;;9.73;3.05;;;16.60;80.50;;;;;;5051277;28;20151;-77
2024/02/29 10:54:24;;;;;;;8.57;2.70;;;16.60;80.10;;;;;;5051891;28;20109;-78
2024/02/29 10:56:53;;;;;;;9.18;2.63;;;16.70;80.00;;;;;;5051800;28;20033;-78
2024/02/29 10:59:20;;;;;;;9.43;2.67;;;16.80;79.90;;;;;;5051478;28;20116;-77
2024/02/29 11:01:47;;;;;;;7.22;2.50;;;16.80;79.60;;;;;;5051834;28;20076;-78
2024/02/29 11:04:14;;;;;;;10.20;2.92;;;16.70;79.10;;;;;;5052127;28;20044;-76
2024/02/29 11:06:46;;;;;;;10.80;3.00;;;16.70;79.20;;;;;;5052469;28;20025;-77
2024/02/29 11:09:17;;;;;;;10.98;2.83;;;16.70;79.00;;;;;;5052279;28;20056;-78
2024/02/29 11:11:45;;;;;;;8.50;2.63;;;16.80;78.90;;;;;;5051920;28;20469;-76
2024/02/29 11:14:12;;;;;;;8.75;2.83;;;16.90;78.70;;;;;;5051906;28;20206;-77
2024/02/29 11:16:43;;;;;;;8.70;2.42;;;17.10;78.10;;;;;;5033692;28;20354;-77
2024/02/29 11:19:18;;;;;;;8.40;2.58;;;17.20;78.00;;;;;;5052282;28;20452;-77
2024/02/29 11:21:44;;;;;;;10.45;2.42;;;17.30;77.60;;;;;;5054331;28;20037;-75
2024/02/29 11:24:22;;;;;;;8.23;2.05;;;17.30;77.50;;;;;;5055340;28;20119;-76
2024/02/29 11:26:58;;;;;;;10.15;3.53;;;17.30;77.20;;;;;;5055030;28;20106;-76
2024/02/29 11:29:25;;;;;;;7.05;1.67;;;17.40;77.20;;;;;;5055767;28;20036;-78
2024/02/29 11:31:55;;;;;;;10.73;1.85;;;17.40;76.60;;;;;;5055148;28;20063;-77
2024/02/29 11:34:21;;;;;;;7.55;1.88;;;17.40;75.10;;;;;;5055345;28;20032;-77
2024/02/29 11:36:50;;;;;;;5.45;1.80;;;17.30;74.70;;;;;;5055138;28;20036;-78
2024/02/29 11:39:20;;;;;;;12.02;2.10;;;17.20;74.40;;;;;;5054932;28;20033;-78
2024/02/29 11:41:47;;;;;;;10.25;2.33;;;17.30;74.60;;;;;;5055112;28;20064;-79
2024/02/29 11:44:13;;;;;;;12.63;2.22;;;17.40;74.10;;;;;;5055574;28;20033;-78
2024/02/29 11:46:48;;;;;;;9.57;2.28;;;17.50;74.30;;;;;;5055160;28;20051;-76
2024/02/29 11:49:15;;;;;;;10.38;3.15;;;17.60;73.50;;;;;;5055027;28;20453;-75
2024/02/29 11:51:41;;;;;;;10.23;1.85;;;17.60;73.40;;;;;;5055000;28;20041;-77
2024/02/29 11:54:07;;;;;;;7.88;1.42;;;17.60;73.20;;;;;;5054775;28;20404;-78
2024/02/29 11:56:32;;;;;;;6.22;1.77;;;17.60;72.90;;;;;;5054841;28;20040;-77
2024/02/29 11:59:02;;;;;;;8.23;1.77;;;17.40;72.50;;;;;;5054876;28;20074;-77
2024/02/29 12:01:28;;;;;;;6.13;2.05;;;17.50;72.80;;;;;;5054379;28;20037;-76
2024/02/29 12:03:54;;;;;;;10.20;1.93;;;17.70;72.90;;;;;;5054808;28;20044;-75
2024/02/29 12:06:20;;;;;;;8.63;2.00;;;17.80;72.40;;;;;;5054358;28;20485;-76
2024/02/29 12:08:47;;;;;;;6.13;1.58;;;17.90;71.70;;;;;;5054516;28;20033;-76
2024/02/29 12:11:14;;;;;;;7.53;1.60;;;18.10;72.00;;;;;;5054123;28;20028;-77
2024/02/29 12:13:40;;;;;;;8.63;1.75;;;18.00;71.10;;;;;;5055521;28;20029;-76
2024/02/29 12:16:06;;;;;;;12.05;1.83;;;18.10;70.90;;;;;;5056154;28;20040;-77
2024/02/29 12:18:37;;;;;;;6.55;1.80;;;18.20;70.30;;;;;;5054261;28;20045;-76
2024/02/29 12:21:07;;;;;;;10.70;1.75;;;18.10;70.00;;;;;;5054285;28;20071;-77
2024/02/29 12:23:32;;;;;;;6.30;1.92;;;18.20;70.30;;;;;;5054372;28;20397;-76
2024/02/29 12:26:12;;;;;;;6.82;1.80;;;18.30;70.40;;;;;;5054415;28;20041;-77
2024/02/29 12:28:39;;;;;;;8.43;1.95;;;18.20;70.50;;;;;;5055409;28;20040;-77
2024/02/29 12:31:06;;;;;;;6.15;1.65;;;18.10;70.60;;;;;;5054468;28;20044;-78
2024/02/29 12:33:39;;;;;;;10.63;1.80;;;18.00;70.40;;;;;;5053978;28;20033;-76
2024/02/29 12:36:06;;;;;;;8.23;2.10;;;18.00;70.90;;;;;;5054552;28;20029;-78
2024/02/29 12:38:33;;;;;;;8.88;1.70;;;18.00;70.60;;;;;;5054035;28;20049;-77
2024/02/29 12:41:01;;;;;;;7.75;1.80;;;18.00;70.60;;;;;;5054208;28;20032;-76